sensor_id;sensor_type;location;lat;lon;timestamp;pressure;altitude;pressure_sealevel;temperature;humidity
63306;BME280;50735;52.060;1.248;2023-02-19T00:01:06;101709.04;;;7.19;59.62
63306;BME280;50735;52.060;1.248;2023-02-19T00:03:34;101705.99;;;7.66;58.86
63306;BME280;50735;52.060;1.248;2023-02-19T00:06:01;101712.36;;;7.43;60.42
63306;BME280;50735;52.060;1.248;2023-02-19T00:08:29;101710.44;;;7.22;60.00
63306;BME280;50735;52.060;1.248;2023-02-19T00:10:59;101714.86;;;7.09;60.22
63306;BME280;50735;52.060;1.248;2023-02-19T00:13:27;101721.34;;;7.30;60.20
63306;BME280;50735;52.060;1.248;2023-02-19T00:15:53;101719.45;;;7.44;59.42
63306;BME280;50735;52.060;1.248;2023-02-19T00:18:20;101721.15;;;7.19;59.85
63306;BME280;50735;52.060;1.248;2023-02-19T00:20:46;101715.66;;;7.53;59.02
63306;BME280;50735;52.060;1.248;2023-02-19T00:23:14;101718.76;;;7.04;60.01
63306;BME280;50735;52.060;1.248;2023-02-19T00:25:40;101722.75;;;7.10;59.87
63306;BME280;50735;52.060;1.248;2023-02-19T00:28:07;101720.54;;;6.76;60.69
63306;BME280;50735;52.060;1.248;2023-02-19T00:30:33;101718.74;;;7.31;59.48
63306;BME280;50735;52.060;1.248;2023-02-19T00:33:00;101721.92;;;7.06;59.84
63306;BME280;50735;52.060;1.248;2023-02-19T00:35:26;101719.32;;;7.12;59.80
63306;BME280;50735;52.060;1.248;2023-02-19T00:37:53;101722.57;;;7.13;59.57
63306;BME280;50735;52.060;1.248;2023-02-19T00:40:20;101732.93;;;6.90;59.84
63306;BME280;50735;52.060;1.248;2023-02-19T00:42:47;101733.81;;;6.86;60.10
63306;BME280;50735;52.060;1.248;2023-02-19T00:45:13;101737.40;;;6.71;60.18
63306;BME280;50735;52.060;1.248;2023-02-19T00:47:40;101736.88;;;6.96;59.82
63306;BME280;50735;52.060;1.248;2023-02-19T00:50:07;101735.70;;;7.35;58.88
63306;BME280;50735;52.060;1.248;2023-02-19T00:52:34;101747.90;;;7.14;59.26
63306;BME280;50735;52.060;1.248;2023-02-19T00:55:01;101751.34;;;7.21;59.17
63306;BME280;50735;52.060;1.248;2023-02-19T00:57:28;101746.86;;;6.91;59.88
63306;BME280;50735;52.060;1.248;2023-02-19T00:59:55;101752.26;;;6.88;59.92
63306;BME280;50735;52.060;1.248;2023-02-19T01:02:22;101752.36;;;6.94;59.55
63306;BME280;50735;52.060;1.248;2023-02-19T01:04:49;101761.08;;;7.31;58.65
63306;BME280;50735;52.060;1.248;2023-02-19T01:07:15;101768.63;;;7.41;58.13
63306;BME280;50735;52.060;1.248;2023-02-19T01:09:42;101774.40;;;7.16;59.37
63306;BME280;50735;52.060;1.248;2023-02-19T01:12:09;101772.98;;;7.01;59.90
63306;BME280;50735;52.060;1.248;2023-02-19T01:14:35;101775.04;;;7.46;59.27
63306;BME280;50735;52.060;1.248;2023-02-19T01:17:02;101781.40;;;6.48;61.07
63306;BME280;50735;52.060;1.248;2023-02-19T01:19:29;101776.42;;;6.83;60.30
63306;BME280;50735;52.060;1.248;2023-02-19T01:21:55;101773.00;;;6.85;60.05
63306;BME280;50735;52.060;1.248;2023-02-19T01:25:18;101776.03;;;7.13;60.35
63306;BME280;50735;52.060;1.248;2023-02-19T01:27:45;101771.58;;;7.27;59.61
63306;BME280;50735;52.060;1.248;2023-02-19T01:30:12;101768.45;;;7.00;59.48
63306;BME280;50735;52.060;1.248;2023-02-19T01:32:39;101766.33;;;7.09;59.49
63306;BME280;50735;52.060;1.248;2023-02-19T01:35:07;101774.42;;;7.21;58.88
63306;BME280;50735;52.060;1.248;2023-02-19T01:37:34;101782.40;;;6.80;59.66
63306;BME280;50735;52.060;1.248;2023-02-19T01:40:01;101781.72;;;7.03;59.16
63306;BME280;50735;52.060;1.248;2023-02-19T01:42:27;101785.42;;;7.31;58.55
63306;BME280;50735;52.060;1.248;2023-02-19T01:45:18;101779.53;;;7.19;58.59
63306;BME280;50735;52.060;1.248;2023-02-19T01:47:50;101790.33;;;6.73;59.68
63306;BME280;50735;52.060;1.248;2023-02-19T01:50:21;101784.38;;;6.99;58.57
63306;BME280;50735;52.060;1.248;2023-02-19T01:52:48;101781.74;;;6.79;59.17
63306;BME280;50735;52.060;1.248;2023-02-19T01:55:15;101780.07;;;6.79;59.19
63306;BME280;50735;52.060;1.248;2023-02-19T01:57:45;101773.99;;;7.15;59.27
63306;BME280;50735;52.060;1.248;2023-02-19T02:00:16;101778.39;;;6.92;58.85
63306;BME280;50735;52.060;1.248;2023-02-19T02:02:49;101783.06;;;7.07;58.59
63306;BME280;50735;52.060;1.248;2023-02-19T02:05:22;101785.22;;;6.97;58.64
63306;BME280;50735;52.060;1.248;2023-02-19T02:07:50;101790.15;;;6.69;59.28
63306;BME280;50735;52.060;1.248;2023-02-19T02:10:17;101789.67;;;6.32;59.78
63306;BME280;50735;52.060;1.248;2023-02-19T02:12:44;101792.86;;;6.31;60.00
63306;BME280;50735;52.060;1.248;2023-02-19T02:15:10;101794.82;;;6.65;60.05
63306;BME280;50735;52.060;1.248;2023-02-19T02:17:47;101801.05;;;6.70;59.55
63306;BME280;50735;52.060;1.248;2023-02-19T02:20:29;101812.62;;;6.24;59.93
63306;BME280;50735;52.060;1.248;2023-02-19T02:23:01;101807.66;;;6.75;58.84
63306;BME280;50735;52.060;1.248;2023-02-19T02:25:42;101815.11;;;6.70;58.82
63306;BME280;50735;52.060;1.248;2023-02-19T02:28:24;101817.30;;;6.45;59.73
63306;BME280;50735;52.060;1.248;2023-02-19T02:30:58;101822.31;;;6.56;59.06
63306;BME280;50735;52.060;1.248;2023-02-19T02:33:31;101830.33;;;6.89;58.29
63306;BME280;50735;52.060;1.248;2023-02-19T02:36:05;101830.35;;;6.73;59.12
63306;BME280;50735;52.060;1.248;2023-02-19T02:38:36;101832.86;;;6.41;59.16
63306;BME280;50735;52.060;1.248;2023-02-19T02:41:04;101833.79;;;6.63;59.49
63306;BME280;50735;52.060;1.248;2023-02-19T02:43:32;101838.01;;;6.85;59.02
63306;BME280;50735;52.060;1.248;2023-02-19T02:45:59;101841.57;;;6.29;59.74
63306;BME280;50735;52.060;1.248;2023-02-19T02:48:31;101841.69;;;6.73;58.72
63306;BME280;50735;52.060;1.248;2023-02-19T02:51:04;101845.62;;;6.81;59.24
63306;BME280;50735;52.060;1.248;2023-02-19T02:53:35;101840.70;;;6.67;58.77
63306;BME280;50735;52.060;1.248;2023-02-19T02:56:05;101840.48;;;6.70;58.70
63306;BME280;50735;52.060;1.248;2023-02-19T02:58:33;101841.96;;;6.69;58.69
63306;BME280;50735;52.060;1.248;2023-02-19T03:01:04;101847.02;;;6.80;58.52
63306;BME280;50735;52.060;1.248;2023-02-19T03:03:34;101852.83;;;7.28;57.30
63306;BME280;50735;52.060;1.248;2023-02-19T03:06:06;101854.98;;;6.70;58.52
63306;BME280;50735;52.060;1.248;2023-02-19T03:08:36;101850.02;;;6.67;58.61
63306;BME280;50735;52.060;1.248;2023-02-19T03:11:07;101848.38;;;6.70;58.51
63306;BME280;50735;52.060;1.248;2023-02-19T03:13:37;101844.91;;;6.61;58.88
63306;BME280;50735;52.060;1.248;2023-02-19T03:16:09;101850.52;;;6.74;58.45
63306;BME280;50735;52.060;1.248;2023-02-19T03:18:39;101853.84;;;6.37;59.19
63306;BME280;50735;52.060;1.248;2023-02-19T03:21:08;101855.41;;;6.85;58.13
63306;BME280;50735;52.060;1.248;2023-02-19T03:23:36;101855.65;;;6.74;58.38
63306;BME280;50735;52.060;1.248;2023-02-19T03:26:04;101862.76;;;6.73;58.33
63306;BME280;50735;52.060;1.248;2023-02-19T03:28:32;101865.52;;;6.90;58.46
63306;BME280;50735;52.060;1.248;2023-02-19T03:31:01;101870.98;;;6.69;59.12
63306;BME280;50735;52.060;1.248;2023-02-19T03:33:28;101875.54;;;6.13;59.48
63306;BME280;50735;52.060;1.248;2023-02-19T03:35:57;101872.39;;;6.40;59.46
63306;BME280;50735;52.060;1.248;2023-02-19T03:38:31;101869.08;;;6.59;58.97
63306;BME280;50735;52.060;1.248;2023-02-19T03:41:08;101874.28;;;6.96;58.51
63306;BME280;50735;52.060;1.248;2023-02-19T03:43:40;101873.27;;;6.74;58.02
63306;BME280;50735;52.060;1.248;2023-02-19T03:46:10;101876.46;;;7.06;57.40
63306;BME280;50735;52.060;1.248;2023-02-19T03:48:46;101883.61;;;6.52;58.35
63306;BME280;50735;52.060;1.248;2023-02-19T03:51:23;101888.56;;;6.71;58.35
63306;BME280;50735;52.060;1.248;2023-02-19T03:53:57;101891.70;;;6.78;58.07
63306;BME280;50735;52.060;1.248;2023-02-19T03:56:33;101895.94;;;6.30;58.73
63306;BME280;50735;52.060;1.248;2023-02-19T03:59:08;101900.77;;;6.26;58.81
63306;BME280;50735;52.060;1.248;2023-02-19T04:01:40;101896.97;;;6.33;58.95
63306;BME280;50735;52.060;1.248;2023-02-19T04:04:12;101900.68;;;6.32;58.54
63306;BME280;50735;52.060;1.248;2023-02-19T04:06:43;101896.39;;;6.45;58.23
63306;BME280;50735;52.060;1.248;2023-02-19T04:09:13;101900.03;;;6.75;57.50
63306;BME280;50735;52.060;1.248;2023-02-19T04:11:40;101900.77;;;6.38;58.00
63306;BME280;50735;52.060;1.248;2023-02-19T04:14:10;101900.84;;;6.28;58.43
63306;BME280;50735;52.060;1.248;2023-02-19T04:16:42;101898.93;;;6.61;57.59
63306;BME280;50735;52.060;1.248;2023-02-19T04:19:13;101910.99;;;6.30;58.97
63306;BME280;50735;52.060;1.248;2023-02-19T04:21:43;101912.72;;;5.91;59.07
63306;BME280;50735;52.060;1.248;2023-02-19T04:24:15;101921.49;;;5.80;59.32
63306;BME280;50735;52.060;1.248;2023-02-19T04:26:44;101922.52;;;6.51;58.55
63306;BME280;50735;52.060;1.248;2023-02-19T04:29:11;101933.37;;;6.04;59.65
63306;BME280;50735;52.060;1.248;2023-02-19T04:31:38;101941.34;;;6.24;59.13
63306;BME280;50735;52.060;1.248;2023-02-19T04:34:04;101943.09;;;5.87;59.69
63306;BME280;50735;52.060;1.248;2023-02-19T04:36:32;101944.63;;;6.47;58.56
63306;BME280;50735;52.060;1.248;2023-02-19T04:38:59;101947.44;;;6.07;59.46
63306;BME280;50735;52.060;1.248;2023-02-19T04:41:25;101948.64;;;6.03;58.63
63306;BME280;50735;52.060;1.248;2023-02-19T04:43:52;101956.38;;;6.26;58.86
63306;BME280;50735;52.060;1.248;2023-02-19T04:46:19;101963.96;;;6.09;58.86
63306;BME280;50735;52.060;1.248;2023-02-19T04:48:45;101956.53;;;6.22;58.72
63306;BME280;50735;52.060;1.248;2023-02-19T04:51:12;101962.29;;;6.58;57.72
63306;BME280;50735;52.060;1.248;2023-02-19T04:53:38;101968.59;;;6.67;57.79
63306;BME280;50735;52.060;1.248;2023-02-19T04:56:06;101963.71;;;6.44;58.49
63306;BME280;50735;52.060;1.248;2023-02-19T04:58:34;101966.41;;;6.33;58.38
63306;BME280;50735;52.060;1.248;2023-02-19T05:01:01;101977.97;;;5.77;59.55
63306;BME280;50735;52.060;1.248;2023-02-19T05:03:28;101980.53;;;6.29;59.00
63306;BME280;50735;52.060;1.248;2023-02-19T05:05:55;101990.04;;;5.85;59.48
63306;BME280;50735;52.060;1.248;2023-02-19T05:08:22;101992.26;;;5.38;60.69
63306;BME280;50735;52.060;1.248;2023-02-19T05:10:48;101992.03;;;6.24;59.04
63306;BME280;50735;52.060;1.248;2023-02-19T05:13:15;101995.87;;;6.10;59.66
63306;BME280;50735;52.060;1.248;2023-02-19T05:15:41;101998.82;;;5.92;60.07
63306;BME280;50735;52.060;1.248;2023-02-19T05:18:08;102008.79;;;5.83;60.32
63306;BME280;50735;52.060;1.248;2023-02-19T05:20:35;102009.69;;;5.81;60.69
63306;BME280;50735;52.060;1.248;2023-02-19T05:23:02;102012.32;;;5.70;60.92
63306;BME280;50735;52.060;1.248;2023-02-19T05:25:29;102014.97;;;6.04;60.26
63306;BME280;50735;52.060;1.248;2023-02-19T05:27:55;102013.63;;;6.23;59.67
63306;BME280;50735;52.060;1.248;2023-02-19T05:30:22;102014.69;;;6.22;59.44
63306;BME280;50735;52.060;1.248;2023-02-19T05:32:49;102021.77;;;6.10;59.68
63306;BME280;50735;52.060;1.248;2023-02-19T05:35:15;102022.45;;;6.77;58.57
63306;BME280;50735;52.060;1.248;2023-02-19T05:37:42;102025.07;;;6.38;59.20
63306;BME280;50735;52.060;1.248;2023-02-19T05:40:09;102024.41;;;6.60;58.85
63306;BME280;50735;52.060;1.248;2023-02-19T05:42:36;102032.06;;;6.03;60.19
63306;BME280;50735;52.060;1.248;2023-02-19T05:45:03;102033.05;;;6.32;59.47
63306;BME280;50735;52.060;1.248;2023-02-19T05:47:30;102041.23;;;5.85;60.42
63306;BME280;50735;52.060;1.248;2023-02-19T05:49:57;102041.13;;;6.12;60.03
63306;BME280;50735;52.060;1.248;2023-02-19T05:52:23;102035.57;;;5.67;60.69
63306;BME280;50735;52.060;1.248;2023-02-19T05:54:50;102036.86;;;5.53;61.17
63306;BME280;50735;52.060;1.248;2023-02-19T05:57:17;102036.79;;;6.15;59.90
63306;BME280;50735;52.060;1.248;2023-02-19T05:59:43;102037.95;;;6.10;59.66
63306;BME280;50735;52.060;1.248;2023-02-19T06:02:11;102039.19;;;5.99;59.75
63306;BME280;50735;52.060;1.248;2023-02-19T06:04:38;102039.42;;;5.94;59.79
63306;BME280;50735;52.060;1.248;2023-02-19T06:07:05;102045.53;;;6.17;60.09
63306;BME280;50735;52.060;1.248;2023-02-19T06:09:31;102042.61;;;5.69;60.63
63306;BME280;50735;52.060;1.248;2023-02-19T06:11:58;102043.83;;;5.48;61.20
63306;BME280;50735;52.060;1.248;2023-02-19T06:14:25;102047.86;;;6.02;59.62
63306;BME280;50735;52.060;1.248;2023-02-19T06:16:51;102050.64;;;5.83;59.83
63306;BME280;50735;52.060;1.248;2023-02-19T06:19:18;102049.72;;;6.01;59.20
63306;BME280;50735;52.060;1.248;2023-02-19T06:21:45;102050.73;;;5.43;59.98
63306;BME280;50735;52.060;1.248;2023-02-19T06:24:11;102050.66;;;5.62;59.64
63306;BME280;50735;52.060;1.248;2023-02-19T06:26:38;102053.51;;;5.78;60.59
63306;BME280;50735;52.060;1.248;2023-02-19T06:29:05;102058.31;;;6.02;60.03
63306;BME280;50735;52.060;1.248;2023-02-19T06:31:31;102064.92;;;5.26;61.33
63306;BME280;50735;52.060;1.248;2023-02-19T06:33:58;102072.02;;;6.05;59.51
63306;BME280;50735;52.060;1.248;2023-02-19T06:36:24;102081.27;;;5.91;59.32
63306;BME280;50735;52.060;1.248;2023-02-19T06:38:51;102083.70;;;6.18;58.28
63306;BME280;50735;52.060;1.248;2023-02-19T06:41:18;102088.58;;;6.24;58.58
63306;BME280;50735;52.060;1.248;2023-02-19T06:43:44;102089.45;;;6.09;59.51
63306;BME280;50735;52.060;1.248;2023-02-19T06:46:11;102094.07;;;6.17;58.86
63306;BME280;50735;52.060;1.248;2023-02-19T06:48:40;102094.82;;;5.71;59.06
63306;BME280;50735;52.060;1.248;2023-02-19T06:51:10;102100.76;;;5.96;58.41
63306;BME280;50735;52.060;1.248;2023-02-19T06:53:37;102110.58;;;5.75;58.61
63306;BME280;50735;52.060;1.248;2023-02-19T06:56:05;102110.01;;;5.70;58.64
63306;BME280;50735;52.060;1.248;2023-02-19T06:58:33;102117.90;;;5.58;59.39
63306;BME280;50735;52.060;1.248;2023-02-19T07:00:59;102127.64;;;5.96;58.36
63306;BME280;50735;52.060;1.248;2023-02-19T07:03:26;102132.14;;;5.90;57.34
63306;BME280;50735;52.060;1.248;2023-02-19T07:05:53;102137.80;;;5.88;57.24
63306;BME280;50735;52.060;1.248;2023-02-19T07:08:19;102141.95;;;5.26;57.38
63306;BME280;50735;52.060;1.248;2023-02-19T07:10:53;102150.54;;;5.06;57.31
63306;BME280;50735;52.060;1.248;2023-02-19T07:13:20;102152.25;;;4.94;56.83
63306;BME280;50735;52.060;1.248;2023-02-19T07:15:47;102157.71;;;4.97;56.72
63306;BME280;50735;52.060;1.248;2023-02-19T07:18:13;102168.54;;;5.29;55.57
63306;BME280;50735;52.060;1.248;2023-02-19T07:20:40;102167.00;;;5.44;56.15
63306;BME280;50735;52.060;1.248;2023-02-19T07:23:07;102184.19;;;4.93;56.25
63306;BME280;50735;52.060;1.248;2023-02-19T07:25:33;102181.37;;;5.47;55.44
63306;BME280;50735;52.060;1.248;2023-02-19T07:28:00;102184.10;;;5.26;55.73
63306;BME280;50735;52.060;1.248;2023-02-19T07:30:27;102186.11;;;5.23;55.49
63306;BME280;50735;52.060;1.248;2023-02-19T07:32:53;102190.06;;;5.21;55.58
63306;BME280;50735;52.060;1.248;2023-02-19T07:35:20;102202.00;;;5.46;55.55
63306;BME280;50735;52.060;1.248;2023-02-19T07:37:46;102209.45;;;5.41;55.50
63306;BME280;50735;52.060;1.248;2023-02-19T07:40:13;102216.81;;;5.44;55.43
63306;BME280;50735;52.060;1.248;2023-02-19T07:42:40;102229.78;;;4.97;55.60
63306;BME280;50735;52.060;1.248;2023-02-19T07:45:07;102239.46;;;5.30;55.53
63306;BME280;50735;52.060;1.248;2023-02-19T07:47:34;102243.52;;;4.77;55.91
63306;BME280;50735;52.060;1.248;2023-02-19T07:50:00;102240.89;;;4.81;56.38
63306;BME280;50735;52.060;1.248;2023-02-19T07:52:27;102240.01;;;5.02;55.72
63306;BME280;50735;52.060;1.248;2023-02-19T07:54:54;102250.23;;;5.40;55.27
63306;BME280;50735;52.060;1.248;2023-02-19T07:57:20;102259.69;;;5.15;55.59
63306;BME280;50735;52.060;1.248;2023-02-19T07:59:47;102261.97;;;5.27;55.54
63306;BME280;50735;52.060;1.248;2023-02-19T08:02:15;102266.67;;;4.96;56.39
63306;BME280;50735;52.060;1.248;2023-02-19T08:04:43;102261.36;;;4.63;56.90
63306;BME280;50735;52.060;1.248;2023-02-19T08:07:09;102267.48;;;4.85;55.59
63306;BME280;50735;52.060;1.248;2023-02-19T08:09:36;102274.37;;;5.11;55.66
63306;BME280;50735;52.060;1.248;2023-02-19T08:12:03;102269.73;;;4.98;55.36
63306;BME280;50735;52.060;1.248;2023-02-19T08:14:30;102267.55;;;5.07;55.15
63306;BME280;50735;52.060;1.248;2023-02-19T08:16:57;102273.33;;;4.84;55.81
63306;BME280;50735;52.060;1.248;2023-02-19T08:19:24;102271.08;;;4.80;55.52
63306;BME280;50735;52.060;1.248;2023-02-19T08:21:51;102267.18;;;5.44;55.00
63306;BME280;50735;52.060;1.248;2023-02-19T08:24:17;102264.02;;;5.37;55.12
63306;BME280;50735;52.060;1.248;2023-02-19T08:26:44;102254.59;;;5.35;55.07
63306;BME280;50735;52.060;1.248;2023-02-19T08:29:11;102241.85;;;5.39;54.32
63306;BME280;50735;52.060;1.248;2023-02-19T08:31:38;102236.91;;;5.41;54.24
63306;BME280;50735;52.060;1.248;2023-02-19T08:34:04;102239.86;;;4.68;55.93
63306;BME280;50735;52.060;1.248;2023-02-19T08:36:31;102243.76;;;4.45;56.63
63306;BME280;50735;52.060;1.248;2023-02-19T08:38:58;102248.12;;;4.54;56.22
63306;BME280;50735;52.060;1.248;2023-02-19T08:41:24;102249.72;;;4.99;56.15
63306;BME280;50735;52.060;1.248;2023-02-19T08:43:51;102248.38;;;4.93;55.53
63306;BME280;50735;52.060;1.248;2023-02-19T08:46:18;102251.59;;;5.42;54.43
63306;BME280;50735;52.060;1.248;2023-02-19T08:48:44;102260.12;;;5.60;54.31
63306;BME280;50735;52.060;1.248;2023-02-19T08:51:11;102272.31;;;5.22;53.97
63306;BME280;50735;52.060;1.248;2023-02-19T08:53:39;102277.17;;;5.29;54.35
63306;BME280;50735;52.060;1.248;2023-02-19T08:56:07;102287.56;;;5.26;54.91
63306;BME280;50735;52.060;1.248;2023-02-19T08:58:35;102293.29;;;5.00;55.60
63306;BME280;50735;52.060;1.248;2023-02-19T09:01:02;102298.98;;;5.60;54.67
63306;BME280;50735;52.060;1.248;2023-02-19T09:03:29;102306.00;;;5.73;54.06
63306;BME280;50735;52.060;1.248;2023-02-19T09:05:55;102308.57;;;5.18;54.82
63306;BME280;50735;52.060;1.248;2023-02-19T09:08:22;102314.51;;;6.34;52.80
63306;BME280;50735;52.060;1.248;2023-02-19T09:10:56;102322.75;;;5.84;53.53
63306;BME280;50735;52.060;1.248;2023-02-19T09:13:24;102330.32;;;5.36;54.63
63306;BME280;50735;52.060;1.248;2023-02-19T09:15:50;102335.62;;;5.59;54.39
63306;BME280;50735;52.060;1.248;2023-02-19T09:18:17;102336.89;;;5.87;54.10
63306;BME280;50735;52.060;1.248;2023-02-19T09:20:44;102339.90;;;5.26;54.71
63306;BME280;50735;52.060;1.248;2023-02-19T09:23:10;102349.17;;;5.69;54.44
63306;BME280;50735;52.060;1.248;2023-02-19T09:25:37;102356.87;;;5.15;55.54
63306;BME280;50735;52.060;1.248;2023-02-19T09:28:03;102357.79;;;5.36;54.95
63306;BME280;50735;52.060;1.248;2023-02-19T09:30:30;102353.28;;;5.27;55.21
63306;BME280;50735;52.060;1.248;2023-02-19T09:32:57;102356.90;;;4.72;56.16
63306;BME280;50735;52.060;1.248;2023-02-19T09:35:23;102364.69;;;5.34;55.31
63306;BME280;50735;52.060;1.248;2023-02-19T09:37:50;102366.01;;;5.40;55.33
63306;BME280;50735;52.060;1.248;2023-02-19T09:40:17;102364.54;;;5.36;55.36
63306;BME280;50735;52.060;1.248;2023-02-19T09:42:44;102371.90;;;4.98;55.80
63306;BME280;50735;52.060;1.248;2023-02-19T09:45:17;102375.27;;;5.25;55.56
63306;BME280;50735;52.060;1.248;2023-02-19T09:47:46;102385.27;;;5.09;55.98
63306;BME280;50735;52.060;1.248;2023-02-19T09:50:16;102388.84;;;4.93;56.89
63306;BME280;50735;52.060;1.248;2023-02-19T09:52:49;102386.41;;;5.28;56.51
63306;BME280;50735;52.060;1.248;2023-02-19T09:55:25;102391.52;;;5.71;54.67
63306;BME280;50735;52.060;1.248;2023-02-19T09:57:55;102387.56;;;5.38;55.07
63306;BME280;50735;52.060;1.248;2023-02-19T10:00:25;102390.38;;;5.23;55.81
63306;BME280;50735;52.060;1.248;2023-02-19T10:02:56;102393.59;;;5.93;53.99
63306;BME280;50735;52.060;1.248;2023-02-19T10:05:25;102395.46;;;6.16;53.33
63306;BME280;50735;52.060;1.248;2023-02-19T10:07:53;102395.80;;;6.39;52.82
63306;BME280;50735;52.060;1.248;2023-02-19T10:10:26;102393.10;;;7.11;51.67
63306;BME280;50735;52.060;1.248;2023-02-19T10:12:58;102397.82;;;6.36;52.53
63306;BME280;50735;52.060;1.248;2023-02-19T10:15:31;102399.39;;;6.07;53.21
63306;BME280;50735;52.060;1.248;2023-02-19T10:18:01;102396.92;;;6.39;52.84
63306;BME280;50735;52.060;1.248;2023-02-19T10:20:28;102389.75;;;6.71;51.99
63306;BME280;50735;52.060;1.248;2023-02-19T10:22:59;102391.90;;;7.13;51.17
63306;BME280;50735;52.060;1.248;2023-02-19T10:25:27;102391.04;;;7.60;50.52
63306;BME280;50735;52.060;1.248;2023-02-19T10:27:56;102397.23;;;6.86;50.91
63306;BME280;50735;52.060;1.248;2023-02-19T10:30:27;102401.11;;;7.48;50.78
63306;BME280;50735;52.060;1.248;2023-02-19T10:33:01;102426.69;;;7.14;50.64
63306;BME280;50735;52.060;1.248;2023-02-19T10:35:28;102438.99;;;6.59;51.46
63306;BME280;50735;52.060;1.248;2023-02-19T10:37:56;102437.59;;;6.60;51.46
63306;BME280;50735;52.060;1.248;2023-02-19T10:40:25;102437.41;;;5.96;52.71
63306;BME280;50735;52.060;1.248;2023-02-19T10:42:56;102443.87;;;6.03;52.89
63306;BME280;50735;52.060;1.248;2023-02-19T10:45:26;102441.33;;;6.19;52.81
63306;BME280;50735;52.060;1.248;2023-02-19T10:47:56;102430.02;;;6.29;52.58
63306;BME280;50735;52.060;1.248;2023-02-19T10:50:26;102441.38;;;5.48;54.29
63306;BME280;50735;52.060;1.248;2023-02-19T10:52:56;102444.14;;;5.62;54.14
63306;BME280;50735;52.060;1.248;2023-02-19T10:55:27;102451.25;;;6.06;53.69
63306;BME280;50735;52.060;1.248;2023-02-19T10:57:55;102462.82;;;6.24;53.06
63306;BME280;50735;52.060;1.248;2023-02-19T11:00:24;102465.59;;;6.15;53.09
63306;BME280;50735;52.060;1.248;2023-02-19T11:03:15;102458.27;;;6.36;52.55
63306;BME280;50735;52.060;1.248;2023-02-19T11:06:01;102441.93;;;6.81;51.96
63306;BME280;50735;52.060;1.248;2023-02-19T11:08:29;102446.72;;;7.01;50.90
63306;BME280;50735;52.060;1.248;2023-02-19T11:10:58;102451.84;;;6.98;50.61
63306;BME280;50735;52.060;1.248;2023-02-19T11:13:27;102441.70;;;6.56;50.87
63306;BME280;50735;52.060;1.248;2023-02-19T11:15:55;102441.28;;;7.30;50.10
63306;BME280;50735;52.060;1.248;2023-02-19T11:18:24;102447.92;;;7.18;50.19
63306;BME280;50735;52.060;1.248;2023-02-19T11:20:54;102446.77;;;8.12;48.91
63306;BME280;50735;52.060;1.248;2023-02-19T11:23:24;102454.13;;;8.09;48.14
63306;BME280;50735;52.060;1.248;2023-02-19T11:25:54;102445.84;;;8.17;48.42
63306;BME280;50735;52.060;1.248;2023-02-19T11:28:28;102422.95;;;9.76;45.17
63306;BME280;50735;52.060;1.248;2023-02-19T11:31:13;102435.67;;;8.75;45.94
63306;BME280;50735;52.060;1.248;2023-02-19T11:33:43;102432.82;;;8.39;46.45
63306;BME280;50735;52.060;1.248;2023-02-19T11:36:24;102431.36;;;8.63;46.36
63306;BME280;50735;52.060;1.248;2023-02-19T11:38:52;102430.73;;;9.32;45.03
63306;BME280;50735;52.060;1.248;2023-02-19T11:41:27;102420.82;;;9.82;44.07
63306;BME280;50735;52.060;1.248;2023-02-19T11:44:08;102428.05;;;9.37;44.66
63306;BME280;50735;52.060;1.248;2023-02-19T11:46:45;102434.88;;;8.77;45.37
63306;BME280;50735;52.060;1.248;2023-02-19T11:49:25;102436.84;;;8.74;44.78
63306;BME280;50735;52.060;1.248;2023-02-19T11:52:09;102442.27;;;7.87;46.46
63306;BME280;50735;52.060;1.248;2023-02-19T11:54:46;102436.47;;;9.27;44.53
63306;BME280;50735;52.060;1.248;2023-02-19T11:57:30;102434.87;;;9.34;43.45
63306;BME280;50735;52.060;1.248;2023-02-19T12:00:18;102433.27;;;10.22;42.64
63306;BME280;50735;52.060;1.248;2023-02-19T12:02:59;102443.80;;;10.30;41.01
63306;BME280;50735;52.060;1.248;2023-02-19T12:05:45;102451.80;;;9.88;41.28
63306;BME280;50735;52.060;1.248;2023-02-19T12:08:30;102454.64;;;9.45;42.16
63306;BME280;50735;52.060;1.248;2023-02-19T12:11:11;102468.74;;;8.15;44.14
63306;BME280;50735;52.060;1.248;2023-02-19T12:14:00;102447.57;;;8.91;43.89
63306;BME280;50735;52.060;1.248;2023-02-19T12:16:35;102447.51;;;9.23;43.30
63306;BME280;50735;52.060;1.248;2023-02-19T12:19:19;102462.69;;;8.92;42.97
63306;BME280;50735;52.060;1.248;2023-02-19T12:22:01;102471.25;;;8.85;43.09
63306;BME280;50735;52.060;1.248;2023-02-19T12:24:51;102460.64;;;9.16;43.02
63306;BME280;50735;52.060;1.248;2023-02-19T12:27:34;102444.88;;;10.59;41.63
63306;BME280;50735;52.060;1.248;2023-02-19T12:30:19;102449.21;;;9.03;42.36
63306;BME280;50735;52.060;1.248;2023-02-19T12:33:03;102437.70;;;9.93;42.26
63306;BME280;50735;52.060;1.248;2023-02-19T12:35:42;102423.45;;;10.29;42.35
63306;BME280;50735;52.060;1.248;2023-02-19T12:38:20;102434.34;;;10.32;40.90
63306;BME280;50735;52.060;1.248;2023-02-19T12:40:57;102430.32;;;10.38;41.41
63306;BME280;50735;52.060;1.248;2023-02-19T12:43:27;102421.73;;;10.63;40.93
63306;BME280;50735;52.060;1.248;2023-02-19T12:45:59;102411.48;;;10.46;40.65
63306;BME280;50735;52.060;1.248;2023-02-19T12:48:30;102405.19;;;11.24;39.85
63306;BME280;50735;52.060;1.248;2023-02-19T12:51:04;102416.08;;;11.13;39.54
63306;BME280;50735;52.060;1.248;2023-02-19T12:53:38;102412.66;;;11.17;39.37
63306;BME280;50735;52.060;1.248;2023-02-19T12:56:11;102412.14;;;11.77;39.03
63306;BME280;50735;52.060;1.248;2023-02-19T12:58:42;102420.66;;;11.29;38.97
63306;BME280;50735;52.060;1.248;2023-02-19T13:01:14;102419.78;;;11.33;38.53
63306;BME280;50735;52.060;1.248;2023-02-19T13:03:47;102425.45;;;10.93;39.27
63306;BME280;50735;52.060;1.248;2023-02-19T13:06:24;102434.57;;;10.36;39.81
63306;BME280;50735;52.060;1.248;2023-02-19T13:08:54;102443.53;;;10.64;39.84
63306;BME280;50735;52.060;1.248;2023-02-19T13:11:28;102454.78;;;10.67;39.50
63306;BME280;50735;52.060;1.248;2023-02-19T13:13:59;102455.66;;;10.20;39.88